createdAt,value
2023-04-22T00:02:33.858Z,13.33
2023-04-22T00:07:37.102Z,13.21
2023-04-22T00:12:38.904Z,13.17
2023-04-22T00:17:40.984Z,13.08
2023-04-22T00:22:44.091Z,13.02
2023-04-22T00:27:45.816Z,13.01
2023-04-22T00:32:49.033Z,12.96
2023-04-22T00:37:52.233Z,12.88
2023-04-22T00:42:53.970Z,12.80
2023-04-22T00:47:55.865Z,12.72
2023-04-22T00:52:59.068Z,12.64
2023-04-22T00:58:00.928Z,12.64
2023-04-22T01:03:03.106Z,12.59
2023-04-22T01:08:06.393Z,12.51
2023-04-22T01:13:08.178Z,12.42
2023-04-22T01:18:10.051Z,12.40
2023-04-22T01:23:17.246Z,12.38
2023-04-22T01:28:19.170Z,12.30
2023-04-22T01:33:20.971Z,12.26
2023-04-22T01:38:24.080Z,12.30
2023-04-22T01:43:25.834Z,12.27
2023-04-22T01:48:28.007Z,12.18
2023-04-22T01:53:31.099Z,12.10
2023-04-22T01:58:33.401Z,12.05
2023-04-22T02:03:35.209Z,11.91
2023-04-22T02:08:38.837Z,11.84
2023-04-22T02:13:41.147Z,11.81
2023-04-22T02:18:43.004Z,11.77
2023-04-22T02:23:46.120Z,11.72
2023-04-22T02:28:48.392Z,11.65
2023-04-22T02:33:50.142Z,11.64
2023-04-22T02:38:53.624Z,11.60
2023-04-22T02:43:55.306Z,11.50
2023-04-22T02:48:57.284Z,11.38
2023-04-22T02:54:00.453Z,11.35
2023-04-22T02:59:02.313Z,11.33
2023-04-22T03:04:04.236Z,11.38
2023-04-22T03:09:07.442Z,11.45
2023-04-22T03:14:09.264Z,11.42
2023-04-22T03:19:11.047Z,11.41
2023-04-22T03:24:14.182Z,11.34
2023-04-22T03:29:21.611Z,11.32
2023-04-22T03:34:23.927Z,11.21
2023-04-22T03:39:27.287Z,11.23
2023-04-22T03:44:29.137Z,11.27
2023-04-22T03:49:31.061Z,11.32
2023-04-22T03:54:34.218Z,11.18
2023-04-22T03:59:36.261Z,11.15
2023-04-22T04:04:38.414Z,11.05
2023-04-22T04:09:43.678Z,11.13
2023-04-22T04:14:46.371Z,11.18
2023-04-22T04:19:52.192Z,11.18
2023-04-22T04:24:56.170Z,11.19
2023-04-22T04:30:03.912Z,11.15
2023-04-22T04:35:35.809Z,11.17
2023-04-22T04:40:39.578Z,11.13
2023-04-22T04:45:49.654Z,11.12
2023-04-22T04:50:56.632Z,11.17
2023-04-22T04:56:02.460Z,11.18
2023-04-22T05:01:05.236Z,11.23
2023-04-22T05:06:07.667Z,11.23
2023-04-22T05:11:13.359Z,11.37
2023-04-22T05:16:16.787Z,11.52
2023-04-22T05:21:18.822Z,11.60
2023-04-22T05:26:22.059Z,11.77
2023-04-22T05:31:25.368Z,11.89
2023-04-22T05:36:29.814Z,12.02
2023-04-22T05:41:34.656Z,12.06
2023-04-22T05:46:37.596Z,12.15
2023-04-22T05:51:39.770Z,12.41
2023-04-22T05:56:42.984Z,12.68
2023-04-22T06:01:45.328Z,12.88
2023-04-22T06:06:53.967Z,13.27
2023-04-22T06:11:58.141Z,14.58
2023-04-22T06:17:00.270Z,17.49
2023-04-22T06:22:02.103Z,18.31
2023-04-22T06:27:05.326Z,19.04
2023-04-22T06:32:07.083Z,19.38
2023-04-22T06:37:09.041Z,18.33
2023-04-22T06:42:12.440Z,18.11
2023-04-22T06:47:24.167Z,17.02
2023-04-22T06:52:42.648Z,18.31
2023-04-22T06:57:45.900Z,20.33
2023-04-22T07:02:47.727Z,21.34
2023-04-22T07:07:49.622Z,22.11
2023-04-22T07:12:56.930Z,23.16
2023-04-22T07:17:58.675Z,23.82
2023-04-22T07:23:00.441Z,23.65
2023-04-22T07:28:03.497Z,23.91
2023-04-22T07:33:05.251Z,24.35
2023-04-22T07:38:09.869Z,25.24
2023-04-22T07:43:14.282Z,25.60
2023-04-22T07:48:17.006Z,27.15
2023-04-22T07:53:19.244Z,31.32
2023-04-22T07:58:22.563Z,28.55
2023-04-22T08:03:24.825Z,25.82
2023-04-22T08:08:26.674Z,29.58
2023-04-22T08:13:29.692Z,32.31
2023-04-22T08:18:31.376Z,34.08
2023-04-22T08:23:33.153Z,34.18
2023-04-22T08:28:36.216Z,34.68
2023-04-22T08:33:38.000Z,34.94
2023-04-22T08:38:39.920Z,36.22
2023-04-22T08:43:43.397Z,36.29
2023-04-22T08:48:45.210Z,36.29
2023-04-22T08:53:49.547Z,35.66
2023-04-22T08:58:52.669Z,35.58
2023-04-22T09:03:54.458Z,35.59
2023-04-22T09:08:56.192Z,35.21
2023-04-22T09:13:59.361Z,34.56
2023-04-22T09:19:01.569Z,34.44
2023-04-22T09:24:04.138Z,36.24
2023-04-22T09:29:09.451Z,38.68
2023-04-22T09:34:13.747Z,39.56
2023-04-22T09:39:15.659Z,38.96
2023-04-22T09:44:19.853Z,37.50
2023-04-22T09:49:25.197Z,36.64
2023-04-22T09:54:26.910Z,38.50
2023-04-22T09:59:30.446Z,38.47
2023-04-22T10:04:34.371Z,38.76
2023-04-22T10:09:36.259Z,38.81
2023-04-22T10:14:39.526Z,38.54
2023-04-22T10:19:41.599Z,38.80
2023-04-22T10:24:44.663Z,38.72
2023-04-22T10:29:47.677Z,37.53
2023-04-22T10:34:49.678Z,38.01
2023-04-22T10:40:06.532Z,36.46
2023-04-22T10:45:13.091Z,36.63
2023-04-22T10:50:21.156Z,35.29
2023-04-22T10:55:22.996Z,35.34
2023-04-22T11:00:38.606Z,37.13
2023-04-22T11:05:47.972Z,37.06
2023-04-22T11:10:50.408Z,34.59
2023-04-22T11:15:54.573Z,31.43
2023-04-22T11:20:56.322Z,30.45
2023-04-22T11:25:59.139Z,29.29
2023-04-22T11:31:06.569Z,28.80
2023-04-22T11:36:10.071Z,28.54
2023-04-22T11:41:11.808Z,28.34
2023-04-22T11:46:14.984Z,28.31
2023-04-22T11:51:16.796Z,27.84
2023-04-22T11:56:18.528Z,27.85
2023-04-22T12:01:21.664Z,27.75
2023-04-22T12:06:23.420Z,27.66
2023-04-22T12:11:25.196Z,27.69
2023-04-22T12:16:28.256Z,27.66
2023-04-22T12:21:30.018Z,27.54
2023-04-22T12:26:32.090Z,27.23
2023-04-22T12:31:35.806Z,26.70
2023-04-22T12:36:37.668Z,26.90
2023-04-22T12:41:39.400Z,26.90
2023-04-22T12:46:42.522Z,26.57
2023-04-22T12:51:44.240Z,26.35
2023-04-22T12:56:46.035Z,26.18
2023-04-22T13:01:49.090Z,25.72
2023-04-22T13:06:56.071Z,25.30
2023-04-22T13:11:58.342Z,25.33
2023-04-22T13:17:01.420Z,25.50
2023-04-22T13:22:03.474Z,25.56
2023-04-22T13:27:07.123Z,25.70
2023-04-22T13:32:10.201Z,25.85
2023-04-22T13:37:12.097Z,25.72
2023-04-22T13:42:13.781Z,25.65
2023-04-22T13:47:16.799Z,25.49
2023-04-22T13:52:18.517Z,25.36
2023-04-22T13:57:20.451Z,25.21
2023-04-22T14:02:23.753Z,25.00
2023-04-22T14:07:25.554Z,25.02
2023-04-22T14:12:27.338Z,24.98
2023-04-22T14:17:30.442Z,25.10
2023-04-22T14:22:32.173Z,24.84
2023-04-22T14:27:35.279Z,24.91
2023-04-22T14:32:38.357Z,25.04
2023-04-22T14:37:41.625Z,25.16
2023-04-22T14:42:43.380Z,25.48
2023-04-22T14:47:46.514Z,25.57
2023-04-22T14:52:48.326Z,25.47
2023-04-22T14:57:50.456Z,24.93
2023-04-22T15:02:54.061Z,24.62
2023-04-22T15:07:57.690Z,24.39
2023-04-22T15:13:00.518Z,24.41
2023-04-22T15:18:05.391Z,24.28
2023-04-22T15:23:07.151Z,24.20
2023-04-22T15:28:08.953Z,24.19
2023-04-22T15:33:12.070Z,24.11
2023-04-22T15:38:14.014Z,23.88
2023-04-22T15:43:15.776Z,23.92
2023-04-22T15:48:18.919Z,23.71
2023-04-22T15:53:20.640Z,23.60
2023-04-22T15:58:22.364Z,23.48
2023-04-22T16:03:25.825Z,23.38
2023-04-22T16:08:27.673Z,23.33
2023-04-22T16:13:29.534Z,23.36
2023-04-22T16:18:32.677Z,23.39
2023-04-22T16:23:34.700Z,23.29
2023-04-22T16:28:36.438Z,23.15
2023-04-22T16:33:39.444Z,23.11
2023-04-22T16:38:41.179Z,23.14
2023-04-22T16:43:43.052Z,23.29
2023-04-22T16:48:46.076Z,23.40
2023-04-22T16:53:47.776Z,23.40
2023-04-22T16:58:49.593Z,23.20
2023-04-22T17:03:52.809Z,23.17
2023-04-22T17:08:54.631Z,22.68
2023-04-22T17:13:56.310Z,22.58
2023-04-22T17:18:59.401Z,22.69
2023-04-22T17:24:02.226Z,22.54
2023-04-22T17:29:03.912Z,22.46
2023-04-22T17:34:06.966Z,22.25
2023-04-22T17:39:08.841Z,22.03
2023-04-22T17:44:11.386Z,21.94
2023-04-22T17:49:14.430Z,21.71
2023-04-22T17:54:16.184Z,21.75
2023-04-22T17:59:18.693Z,21.57
2023-04-22T18:04:21.847Z,21.61
2023-04-22T18:09:23.720Z,21.33
2023-04-22T18:14:26.571Z,21.30
2023-04-22T18:19:29.713Z,21.21
2023-04-22T18:24:31.499Z,21.08
2023-04-22T18:29:33.374Z,21.09
2023-04-22T18:34:36.427Z,20.98
2023-04-22T18:39:39.557Z,20.78
2023-04-22T18:44:41.795Z,20.75
2023-04-22T18:49:45.528Z,20.64
2023-04-22T18:54:47.341Z,20.60
2023-04-22T18:59:49.200Z,20.48
2023-04-22T19:04:54.126Z,20.44
2023-04-22T19:09:55.927Z,20.35
2023-04-22T19:15:00.147Z,20.24
2023-04-22T19:20:05.330Z,20.16
2023-04-22T19:25:07.996Z,20.21
2023-04-22T19:30:11.691Z,20.32
2023-04-22T19:35:16.165Z,20.45
2023-04-22T19:40:18.849Z,20.45
2023-04-22T19:45:21.486Z,20.58
2023-04-22T19:50:25.089Z,20.38
2023-04-22T19:55:27.014Z,20.37
2023-04-22T20:00:30.862Z,20.36
2023-04-22T20:05:34.793Z,20.29
2023-04-22T20:10:36.759Z,20.39
2023-04-22T20:15:39.218Z,20.38
2023-04-22T20:20:45.420Z,20.41
2023-04-22T20:25:47.281Z,20.41
2023-04-22T20:30:49.529Z,20.34
2023-04-22T20:35:52.742Z,20.26
2023-04-22T20:40:54.511Z,20.20
2023-04-22T20:45:56.296Z,20.17
2023-04-22T20:50:59.467Z,20.04
2023-04-22T20:56:01.258Z,20.01
2023-04-22T21:01:03.682Z,20.04
2023-04-22T21:06:07.806Z,19.90
2023-04-22T21:11:09.686Z,19.91
2023-04-22T21:16:11.822Z,19.90
2023-04-22T21:21:15.748Z,19.78
2023-04-22T21:26:17.623Z,19.66
2023-04-22T21:31:20.097Z,19.68
2023-04-22T21:36:24.849Z,19.67
2023-04-22T21:41:26.614Z,19.64
2023-04-22T21:46:28.433Z,19.64
2023-04-22T21:51:32.398Z,19.43
2023-04-22T21:56:34.197Z,19.29
2023-04-22T22:01:35.992Z,19.00
2023-04-22T22:06:39.106Z,18.90
2023-04-22T22:11:40.911Z,18.82
2023-04-22T22:16:43.729Z,18.71
2023-04-22T22:21:46.806Z,18.82
2023-04-22T22:26:48.910Z,18.48
2023-04-22T22:31:50.644Z,18.28
2023-04-22T22:36:53.743Z,18.09
2023-04-22T22:41:55.494Z,18.16
2023-04-22T22:46:57.242Z,18.21
2023-04-22T22:52:01.492Z,18.46
2023-04-22T22:57:05.316Z,18.52
2023-04-22T23:02:07.165Z,18.62
2023-04-22T23:07:10.410Z,18.58
2023-04-22T23:12:12.182Z,18.41
2023-04-22T23:17:13.910Z,18.35
2023-04-22T23:22:16.990Z,18.36
2023-04-22T23:27:19.117Z,18.10
2023-04-22T23:32:20.856Z,18.02
2023-04-22T23:37:24.000Z,17.88
2023-04-22T23:42:25.965Z,17.87
2023-04-22T23:47:27.729Z,17.81
2023-04-22T23:52:30.869Z,17.58
2023-04-22T23:57:33.258Z,17.63
